Time;durP1;ratioP1;P1;durP2;ratioP2;P2;SDS_P1;SDS_P2;PMS_P1;PMS_P2;Temp;Humidity;BMP_temperature;BMP_pressure;BME280_temperature;BME280_humidity;BME280_pressure;Samples;Min_cycle;Max_cycle;Signal;HPM_P1;HPM_P2
2023/04/13 00:01:58;;;;;;;7.55;1.60;;;;;;;6.20;100.00;99245.41;5016985;28;20072;-74
2023/04/13 00:04:23;;;;;;;4.63;1.73;;;;;;;6.18;100.00;99244.72;5022460;28;20029;-74
2023/04/13 00:06:48;;;;;;;4.70;1.85;;;;;;;6.19;100.00;99240.22;5021787;28;20038;-73
2023/04/13 00:09:15;;;;;;;6.03;1.65;;;;;;;6.19;100.00;99241.03;5018754;28;20037;-74
2023/04/13 00:11:40;;;;;;;4.00;1.33;;;;;;;6.20;100.00;99239.25;5019796;28;20034;-74
2023/04/13 00:14:06;;;;;;;6.53;1.27;;;;;;;6.20;100.00;99239.25;5019010;28;20412;-74
2023/04/13 00:16:31;;;;;;;5.85;1.83;;;;;;;6.23;100.00;99228.31;5017353;28;20339;-74
2023/04/13 00:18:57;;;;;;;4.88;2.00;;;;;;;6.26;100.00;99230.75;5024841;28;20080;-74
2023/04/13 00:21:24;;;;;;;7.13;2.28;;;;;;;6.26;100.00;99234.25;5020602;28;20022;-74
2023/04/13 00:23:51;;;;;;;6.45;1.95;;;;;;;6.27;100.00;99233.28;5021620;28;20022;-74
2023/04/13 00:26:20;;;;;;;8.88;2.03;;;;;;;6.29;100.00;99242.00;5020532;28;20422;-74
2023/04/13 00:28:46;;;;;;;7.47;1.90;;;;;;;6.32;100.00;99253.41;5020340;28;20108;-73
2023/04/13 00:31:11;;;;;;;9.75;1.85;;;;;;;6.35;100.00;99242.47;5015802;28;20240;-74
2023/04/13 00:33:36;;;;;;;8.43;2.33;;;;;;;6.35;100.00;99234.47;5009777;28;20086;-73
2023/04/13 00:36:01;;;;;;;7.35;1.75;;;;;;;6.35;100.00;99232.66;5017965;28;20025;-74
2023/04/13 00:38:28;;;;;;;8.63;2.00;;;;;;;6.35;100.00;99242.47;5021161;28;20104;-73
2023/04/13 00:40:54;;;;;;;8.13;2.35;;;;;;;6.33;100.00;99250.63;5017829;28;20032;-74
2023/04/13 00:43:20;;;;;;;7.18;1.88;;;;;;;6.33;100.00;99247.09;5018789;28;20486;-74
2023/04/13 00:45:46;;;;;;;13.10;2.42;;;;;;;6.34;100.00;99241.63;5019290;28;20021;-74
2023/04/13 00:48:11;;;;;;;7.93;1.95;;;;;;;6.32;100.00;99237.41;5018559;28;20025;-74
2023/04/13 00:50:38;;;;;;;5.15;1.17;;;;;;;6.32;100.00;99243.56;5020081;28;20030;-74
2023/04/13 00:53:05;;;;;;;7.80;1.73;;;;;;;6.32;100.00;99248.06;5020019;28;20516;-74
2023/04/13 00:55:30;;;;;;;5.10;1.48;;;;;;;6.30;100.00;99235.69;5020185;28;20030;-74
2023/04/13 00:57:58;;;;;;;5.93;1.75;;;;;;;6.32;100.00;99238.22;5020715;28;20107;-74
2023/04/13 01:00:25;;;;;;;5.80;1.58;;;;;;;6.33;100.00;99239.09;5017323;28;20114;-70
2023/04/13 01:02:51;;;;;;;5.90;1.92;;;;;;;6.36;100.00;99238.84;5021887;28;20037;-70
2023/04/13 01:05:17;;;;;;;9.25;2.20;;;;;;;6.35;100.00;99237.97;5023360;28;20468;-70
2023/04/13 01:08:07;;;;;;;3.95;1.38;;;;;;;6.35;100.00;99243.31;5025940;28;20046;-71
2023/04/13 01:10:41;;;;;;;3.40;1.60;;;;;;;6.36;100.00;99241.50;5027840;28;20075;-70
2023/04/13 01:13:11;;;;;;;7.07;1.98;;;;;;;6.37;100.00;99245.84;5025153;28;20385;-70
2023/04/13 01:15:41;;;;;;;6.20;1.80;;;;;;;6.36;100.00;99241.50;5022900;28;20100;-71
2023/04/13 01:18:09;;;;;;;6.80;1.95;;;;;;;6.38;100.00;99243.06;5024383;28;20397;-71
2023/04/13 01:20:37;;;;;;;6.22;1.73;;;;;;;6.38;100.00;99247.56;5021151;28;20077;-70
2023/04/13 01:23:23;;;;;;;8.32;2.15;;;;;;;6.39;100.00;99247.44;5023571;28;20088;-70
2023/04/13 01:26:07;;;;;;;3.25;1.42;;;;;;;6.40;100.00;99240.25;5018193;28;20033;-70
2023/04/13 01:28:34;;;;;;;10.77;2.38;;;;;;;6.40;100.00;99243.81;5033924;28;20032;-70
2023/04/13 01:31:04;;;;;;;5.70;1.98;;;;;;;6.41;100.00;99244.63;5021925;28;20053;-70
2023/04/13 01:33:32;;;;;;;10.07;1.88;;;;;;;6.41;100.00;99247.31;5021733;28;20025;-71
2023/04/13 01:35:59;;;;;;;6.03;2.00;;;;;;;6.42;100.00;99251.69;5010919;28;20026;-70
2023/04/13 01:38:24;;;;;;;5.45;1.55;;;;;;;6.41;100.00;99249.97;5024091;28;20033;-70
2023/04/13 01:40:50;;;;;;;10.27;2.33;;;;;;;6.43;100.00;99261.41;5030363;28;20032;-70
2023/04/13 01:43:17;;;;;;;11.15;2.42;;;;;;;6.44;100.00;99273.75;5031178;28;20031;-70
2023/04/13 01:46:03;;;;;;;6.68;1.90;;;;;;;6.45;100.00;99270.09;5025343;28;20026;-70
2023/04/13 01:48:36;;;;;;;8.38;1.55;;;;;;;6.44;100.00;99274.59;5024094;28;20029;-71
2023/04/13 01:51:15;;;;;;;6.00;1.75;;;;;;;6.44;100.00;99271.06;5016561;28;20030;-70
2023/04/13 01:53:43;;;;;;;5.60;1.50;;;;;;;6.43;100.00;99283.56;5023137;28;20354;-70
2023/04/13 01:56:11;;;;;;;12.40;2.42;;;;;;;6.41;100.00;99280.19;5030783;28;20109;-70
2023/04/13 01:58:39;;;;;;;9.43;1.73;;;;;;;6.42;100.00;99281.03;5024626;28;20112;-70
2023/04/13 02:01:06;;;;;;;6.70;1.73;;;;;;;6.40;100.00;99294.50;5023471;28;20025;-70
2023/04/13 02:03:34;;;;;;;9.73;2.40;;;;;;;6.40;100.00;99306.97;5029013;28;20036;-71
2023/04/13 02:06:01;;;;;;;9.60;2.50;;;;;;;6.41;100.00;99298.00;5027563;28;20029;-71
2023/04/13 02:08:27;;;;;;;8.18;2.40;;;;;;;6.41;100.00;99306.00;5020981;28;20052;-70
2023/04/13 02:10:52;;;;;;;7.45;1.80;;;;;;;6.39;100.00;99311.47;5026747;28;20529;-71
2023/04/13 02:13:17;;;;;;;9.80;1.92;;;;;;;6.38;100.00;99312.44;5024347;28;20030;-70
2023/04/13 02:15:43;;;;;;;10.90;2.58;;;;;;;6.36;100.00;99311.72;5020878;28;20057;-70
2023/04/13 02:18:09;;;;;;;11.60;3.00;;;;;;;6.32;100.00;99322.78;5025274;28;20017;-71
2023/04/13 02:20:42;;;;;;;14.73;2.67;;;;;;;6.30;100.00;99322.91;5013371;28;20102;-71
2023/04/13 02:23:09;;;;;;;6.35;1.92;;;;;;;6.31;100.00;99332.63;5021170;28;20037;-71
2023/04/13 02:25:35;;;;;;;8.13;2.25;;;;;;;6.29;100.00;99340.72;5032638;28;20030;-71
2023/04/13 02:28:00;;;;;;;13.25;2.78;;;;;;;6.29;100.00;99343.38;5023852;28;20060;-71
2023/04/13 02:30:26;;;;;;;5.43;1.98;;;;;;;6.29;100.00;99340.72;5027937;28;20022;-70
2023/04/13 02:32:53;;;;;;;7.97;2.15;;;;;;;6.30;100.00;99337.09;5023936;28;20025;-71
2023/04/13 02:35:19;;;;;;;7.78;2.13;;;;;;;6.32;100.00;99350.28;5032845;28;20061;-70
2023/04/13 02:37:45;;;;;;;13.02;3.72;;;;;;;6.32;100.00;99344.13;5024020;28;20032;-70
2023/04/13 02:40:11;;;;;;;13.25;2.95;;;;;;;6.33;100.00;99354.66;5017517;28;20025;-70
2023/04/13 02:42:37;;;;;;;8.40;2.00;;;;;;;6.33;100.00;99354.66;5014845;28;20121;-70
2023/04/13 02:45:03;;;;;;;11.40;2.90;;;;;;;6.35;100.00;99352.72;5020108;28;20029;-70
2023/04/13 02:47:28;;;;;;;7.88;2.55;;;;;;;6.37;100.00;99357.94;5022039;28;20029;-72
2023/04/13 02:49:54;;;;;;;7.88;2.65;;;;;;;6.38;100.00;99371.16;5025430;28;20129;-71
2023/04/13 02:52:20;;;;;;;4.13;1.77;;;;;;;6.40;100.00;99381.69;5025220;28;20025;-70
2023/04/13 02:54:46;;;;;;;11.60;2.38;;;;;;;6.40;100.00;99377.22;5019911;28;20581;-70
2023/04/13 02:57:12;;;;;;;7.35;2.03;;;;;;;6.41;100.00;99378.06;5018995;28;20124;-70
2023/04/13 02:59:38;;;;;;;9.68;2.10;;;;;;;6.40;100.00;99377.22;5025005;28;20022;-70
2023/04/13 03:02:03;;;;;;;10.07;2.40;;;;;;;6.41;100.00;99402.09;5024588;28;20029;-70
2023/04/13 03:04:29;;;;;;;11.77;3.22;;;;;;;6.40;100.00;99409.25;5034961;28;20036;-70
2023/04/13 03:06:55;;;;;;;13.00;3.05;;;;;;;6.38;100.00;99410.34;5031487;28;20038;-71
2023/04/13 03:09:20;;;;;;;10.35;2.38;;;;;;;6.28;100.00;99413.75;5032770;28;20351;-70
2023/04/13 03:11:46;;;;;;;4.13;1.33;;;;;;;6.21;100.00;99422.31;5031745;28;20057;-70
2023/04/13 03:14:20;;;;;;;4.88;1.70;;;;;;;6.12;100.00;99419.41;5034166;28;20327;-70
2023/04/13 03:16:46;;;;;;;1.95;1.55;;;;;;;6.08;100.00;99430.47;5031797;28;20029;-71
2023/04/13 03:19:11;;;;;;;6.55;1.95;;;;;;;6.05;100.00;99428.03;5031019;28;20017;-70
2023/04/13 03:21:36;;;;;;;8.60;1.80;;;;;;;6.03;100.00;99425.47;5029185;28;20092;-70
2023/04/13 03:24:02;;;;;;;7.20;2.25;;;;;;;6.03;100.00;99429.94;5030919;28;20108;-70
2023/04/13 03:26:27;;;;;;;9.65;3.10;;;;;;;6.02;100.00;99434.44;5023571;28;20021;-70
2023/04/13 03:28:52;;;;;;;7.75;2.20;;;;;;;6.06;100.00;99437.72;5028618;28;20026;-69
2023/04/13 03:31:18;;;;;;;11.00;2.55;;;;;;;6.05;100.00;99441.38;5038589;28;20428;-70
2023/04/13 03:33:44;;;;;;;7.53;2.60;;;;;;;6.06;100.00;99451.03;5027712;28;20026;-70
2023/04/13 03:36:09;;;;;;;10.65;2.80;;;;;;;6.04;100.00;99445.00;5030180;28;20025;-71
2023/04/13 03:38:35;;;;;;;5.90;2.42;;;;;;;6.04;100.00;99455.66;5033455;28;20100;-71
2023/04/13 03:41:00;;;;;;;8.18;3.10;;;;;;;6.04;100.00;99458.31;5028741;28;20025;-71
2023/04/13 03:43:26;;;;;;;11.52;3.15;;;;;;;6.06;100.00;99469.72;5028898;28;20147;-70
2023/04/13 03:45:51;;;;;;;15.10;3.67;;;;;;;6.04;100.00;99461.84;5023395;28;20029;-70
2023/04/13 03:48:18;;;;;;;14.23;3.88;;;;;;;6.05;100.00;99470.69;5019108;28;20132;-70
2023/04/13 03:50:43;;;;;;;8.73;3.15;;;;;;;6.04;100.00;99471.66;5036016;28;20036;-70
2023/04/13 03:53:09;;;;;;;14.02;4.45;;;;;;;6.02;100.00;99469.13;5028302;28;20041;-70
2023/04/13 03:55:34;;;;;;;16.02;4.50;;;;;;;6.03;100.00;99477.94;5025479;28;20108;-70
2023/04/13 03:58:00;;;;;;;10.55;4.05;;;;;;;6.01;100.00;99483.41;5030865;28;20022;-71
2023/04/13 04:00:26;;;;;;;15.55;4.35;;;;;;;6.03;100.00;99488.63;5018538;28;20363;-70
2023/04/13 04:02:51;;;;;;;13.02;4.10;;;;;;;6.03;100.00;99483.28;5024671;28;20037;-70
2023/04/13 04:05:16;;;;;;;11.77;3.85;;;;;;;6.02;100.00;99487.78;5021614;28;20089;-70
2023/04/13 04:07:42;;;;;;;14.80;4.22;;;;;;;5.99;100.00;99495.16;5023954;28;20041;-70
2023/04/13 04:10:07;;;;;;;15.93;3.97;;;;;;;5.98;100.00;99504.97;5029454;28;20057;-69
2023/04/13 04:12:33;;;;;;;14.82;4.35;;;;;;;5.98;100.00;99506.81;5028170;28;20057;-70
2023/04/13 04:14:58;;;;;;;14.23;4.70;;;;;;;5.97;100.00;99500.59;5028323;28;20040;-70
2023/04/13 04:17:23;;;;;;;14.18;4.03;;;;;;;5.96;100.00;99520.22;5030638;28;20101;-70
2023/04/13 04:19:49;;;;;;;14.93;4.22;;;;;;;5.94;100.00;99528.34;5025877;28;20052;-70
2023/04/13 04:22:14;;;;;;;14.85;4.55;;;;;;;5.91;100.00;99525.03;5024906;28;20025;-70
2023/04/13 04:24:41;;;;;;;14.25;3.85;;;;;;;5.91;100.00;99533.03;5029088;28;20378;-70
2023/04/13 04:27:06;;;;;;;15.15;4.22;;;;;;;5.90;100.00;99536.66;5026896;28;20490;-71
2023/04/13 04:29:34;;;;;;;16.38;3.95;;;;;;;5.87;100.00;99529.75;5027922;28;20072;-71
2023/04/13 04:32:04;;;;;;;14.05;3.35;;;;;;;5.83;100.00;99535.41;5019061;28;20022;-70
2023/04/13 04:34:30;;;;;;;13.18;3.55;;;;;;;5.80;100.00;99536.53;5026031;28;20029;-70
2023/04/13 04:36:56;;;;;;;20.98;4.25;;;;;;;5.78;100.00;99543.75;5022594;28;20345;-71
2023/04/13 04:39:22;;;;;;;13.77;3.75;;;;;;;5.75;100.00;99544.00;5024212;28;20084;-71
2023/04/13 04:41:52;;;;;;;16.30;4.45;;;;;;;5.72;100.00;99552.22;5026550;28;20033;-70
2023/04/13 04:44:18;;;;;;;15.75;4.47;;;;;;;5.71;100.00;99550.50;5019033;28;20022;-71
2023/04/13 04:46:43;;;;;;;13.05;4.15;;;;;;;5.67;100.00;99551.72;5031198;28;20037;-70
2023/04/13 04:49:09;;;;;;;20.05;4.65;;;;;;;5.67;100.00;99563.22;5021761;28;20048;-70
2023/04/13 04:51:35;;;;;;;13.57;4.32;;;;;;;5.63;100.00;99567.06;5027304;28;20018;-70
2023/04/13 04:54:02;;;;;;;12.65;4.00;;;;;;;5.63;100.00;99571.56;5025986;28;20017;-71
2023/04/13 04:56:28;;;;;;;15.80;4.63;;;;;;;5.62;100.00;99580.53;5025275;28;20029;-70
2023/04/13 04:58:53;;;;;;;16.30;4.70;;;;;;;5.62;100.00;99577.84;5021866;28;20297;-71
2023/04/13 05:01:21;;;;;;;17.85;4.65;;;;;;;5.63;100.00;99579.56;5020355;28;20045;-70
2023/04/13 05:03:47;;;;;;;15.60;4.72;;;;;;;5.66;100.00;99572.19;5020827;28;20033;-70
2023/04/13 05:06:12;;;;;;;20.70;5.55;;;;;;;5.70;100.00;99580.81;5026601;28;20036;-71
2023/04/13 05:08:37;;;;;;;19.48;5.55;;;;;;;5.72;100.00;99578.88;5030428;28;20096;-70
2023/04/13 05:11:06;;;;;;;17.50;4.93;;;;;;;5.73;100.00;99577.94;5027838;28;20124;-70
2023/04/13 05:13:31;;;;;;;18.45;5.18;;;;;;;5.75;100.00;99579.53;5020296;28;20422;-70
2023/04/13 05:15:57;;;;;;;16.23;4.90;;;;;;;5.77;100.00;99587.41;5025602;28;20030;-70
2023/04/13 05:18:25;;;;;;;14.98;5.07;;;;;;;5.77;100.00;99574.06;5019628;28;20041;-70
2023/04/13 05:20:51;;;;;;;14.82;4.68;;;;;;;5.76;100.00;99578.53;5010307;28;20070;-70
2023/04/13 05:23:16;;;;;;;15.63;4.65;;;;;;;5.77;100.00;99582.06;5009645;28;20041;-71
2023/04/13 05:25:41;;;;;;;18.92;5.15;;;;;;;5.76;100.00;99589.19;5014263;28;20049;-70
2023/04/13 05:28:07;;;;;;;16.67;4.53;;;;;;;5.76;100.00;99583.03;5010604;28;20019;-71
2023/04/13 05:30:35;;;;;;;19.90;4.53;;;;;;;5.78;100.00;99589.97;5015025;28;20123;-70
2023/04/13 05:33:05;;;;;;;14.40;4.07;;;;;;;5.81;100.00;99594.19;5015513;28;20029;-70
2023/04/13 05:35:30;;;;;;;16.67;4.25;;;;;;;5.84;100.00;99604.66;5014500;28;20081;-70
2023/04/13 05:37:55;;;;;;;12.82;4.00;;;;;;;5.87;100.00;99611.56;5017972;28;20434;-72
2023/04/13 05:40:21;;;;;;;15.80;4.00;;;;;;;5.90;100.00;99608.66;5011888;28;20043;-71
2023/04/13 05:42:46;;;;;;;13.40;4.18;;;;;;;5.94;100.00;99610.13;5016391;28;20045;-71
2023/04/13 05:45:15;;;;;;;13.30;3.40;;;;;;;5.96;100.00;99616.22;5014562;28;20233;-70
2023/04/13 05:47:41;;;;;;;8.65;3.17;;;;;;;5.99;100.00;99620.50;5016133;28;20043;-70
2023/04/13 05:50:08;;;;;;;12.15;3.20;;;;;;;6.03;100.00;99616.63;5017767;28;20072;-71
2023/04/13 05:52:33;;;;;;;11.75;3.10;;;;;;;6.05;100.00;99623.56;5028645;28;20021;-71
2023/04/13 05:54:59;;;;;;;10.88;2.80;;;;;;;6.10;100.00;99628.56;5012018;28;20164;-70
2023/04/13 05:57:24;;;;;;;12.75;3.10;;;;;;;6.14;100.00;99631.88;5013927;28;20159;-70
2023/04/13 05:59:50;;;;;;;9.70;3.42;;;;;;;6.15;100.00;99637.09;5015436;28;20033;-70
2023/04/13 06:02:16;;;;;;;13.40;3.25;;;;;;;6.20;100.00;99645.59;5015900;28;20026;-70
2023/04/13 06:04:42;;;;;;;10.20;2.72;;;;;;;6.23;100.00;99653.34;5012115;28;20493;-71
2023/04/13 06:07:07;;;;;;;7.07;2.90;;;;;;;6.21;100.00;99657.97;5013754;28;20065;-71
2023/04/13 06:09:32;;;;;;;9.23;2.22;;;;;;;6.25;100.00;99661.25;5014435;28;20057;-70
2023/04/13 06:11:58;;;;;;;7.90;2.90;;;;;;;6.27;100.00;99673.50;5015362;28;20054;-71
2023/04/13 06:14:24;;;;;;;10.93;3.05;;;;;;;6.29;100.00;99679.56;5013238;28;20069;-70
2023/04/13 06:16:51;;;;;;;12.73;3.63;;;;;;;6.30;100.00;99678.63;5013780;28;20066;-71
2023/04/13 06:19:16;;;;;;;10.30;2.97;;;;;;;6.34;100.00;99684.59;5012067;28;20044;-70
2023/04/13 06:21:41;;;;;;;9.27;3.10;;;;;;;6.39;100.00;99671.75;5013577;28;20026;-70
2023/04/13 06:24:08;;;;;;;11.73;3.13;;;;;;;6.43;100.00;99681.22;5011286;28;20062;-71
2023/04/13 06:26:33;;;;;;;10.30;3.22;;;;;;;6.47;100.00;99680.03;5013199;28;20049;-71
2023/04/13 06:28:59;;;;;;;12.70;3.25;;;;;;;6.52;100.00;99685.03;5013459;28;20037;-72
2023/04/13 06:31:26;;;;;;;10.90;2.95;;;;;;;6.58;100.00;99689.91;5016896;28;20112;-71
2023/04/13 06:33:51;;;;;;;11.88;3.58;;;;;;;6.64;100.00;99691.25;5015702;28;20034;-71
2023/04/13 06:36:16;;;;;;;9.57;3.20;;;;;;;6.67;100.00;99696.38;5016870;28;20046;-71
2023/04/13 06:38:42;;;;;;;12.80;2.90;;;;;;;6.69;100.00;99704.25;5015973;28;20477;-71
2023/04/13 06:41:07;;;;;;;10.85;3.17;;;;;;;6.73;100.00;99708.41;5013200;28;20093;-71
2023/04/13 06:43:32;;;;;;;8.15;2.80;;;;;;;6.77;100.00;99708.03;5028894;28;20124;-71
2023/04/13 06:45:59;;;;;;;14.90;3.35;;;;;;;6.80;100.00;99709.66;5019383;28;20084;-71
2023/04/13 06:48:25;;;;;;;18.08;3.50;;;;;;;6.85;100.00;99717.28;5021077;28;20061;-72
2023/04/13 06:50:51;;;;;;;13.23;3.03;;;;;;;6.88;100.00;99725.94;5036631;28;20086;-71
2023/04/13 06:53:16;;;;;;;9.60;2.78;;;;;;;6.90;100.00;99724.00;5021421;28;20049;-71
2023/04/13 06:55:43;;;;;;;14.75;3.08;;;;;;;6.93;100.00;99729.09;5036390;28;20030;-71
2023/04/13 06:58:09;;;;;;;8.63;3.03;;;;;;;6.96;100.00;99728.03;5029269;28;20028;-70
2023/04/13 07:00:34;;;;;;;12.18;3.17;;;;;;;6.98;100.00;99734.97;5029056;28;20323;-71
2023/04/13 07:03:00;;;;;;;13.95;3.47;;;;;;;7.02;100.00;99738.22;5030130;28;20022;-71
2023/04/13 07:05:25;;;;;;;15.43;3.10;;;;;;;7.06;100.00;99749.53;5025512;28;20030;-71
2023/04/13 07:07:51;;;;;;;13.90;3.75;;;;;;;7.11;100.00;99739.34;5026281;28;20049;-70
2023/04/13 07:10:16;;;;;;;12.27;3.22;;;;;;;7.14;100.00;99752.47;5025527;28;20066;-71
2023/04/13 07:12:41;;;;;;;17.40;3.72;;;;;;;7.16;100.00;99756.75;5015888;28;20037;-71
2023/04/13 07:15:08;;;;;;;11.52;3.35;;;;;;;7.18;100.00;99759.28;5027587;28;20081;-71
2023/04/13 07:17:33;;;;;;;13.32;3.25;;;;;;;7.22;100.00;99770.56;5019915;28;20041;-70
2023/04/13 07:19:58;;;;;;;14.82;3.58;;;;;;;7.23;100.00;99782.97;5021004;28;20033;-71
2023/04/13 07:22:24;;;;;;;12.70;3.83;;;;;;;7.21;100.00;99774.25;5019355;28;20156;-70
2023/04/13 07:24:49;;;;;;;15.32;3.83;;;;;;;7.20;100.00;99784.06;5016243;28;20026;-71
2023/04/13 07:27:14;;;;;;;13.38;3.90;;;;;;;7.21;100.00;99787.59;5021515;28;20367;-71
2023/04/13 07:29:40;;;;;;;16.08;4.20;;;;;;;7.24;100.00;99792.72;5020375;28;20018;-71
2023/04/13 07:32:05;;;;;;;13.90;3.22;;;;;;;7.27;100.00;99797.81;5025694;28;20026;-71
2023/04/13 07:34:31;;;;;;;13.93;4.00;;;;;;;7.31;100.00;99801.97;5014467;28;20517;-71
2023/04/13 07:36:59;;;;;;;18.55;4.47;;;;;;;7.32;100.00;99801.84;5018045;28;20530;-71
2023/04/13 07:39:25;;;;;;;12.57;3.45;;;;;;;7.35;100.00;99806.97;5018440;28;20033;-71
2023/04/13 07:41:50;;;;;;;16.52;4.18;;;;;;;7.38;100.00;99802.34;5023226;28;20029;-72
2023/04/13 07:44:16;;;;;;;14.65;3.95;;;;;;;7.41;100.00;99819.00;5021462;28;20036;-71
2023/04/13 07:46:41;;;;;;;16.83;4.28;;;;;;;7.44;100.00;99817.94;5023605;28;20116;-71
2023/04/13 07:49:07;;;;;;;15.65;4.10;;;;;;;7.48;100.00;99814.88;5032682;28;20446;-71
2023/04/13 07:51:33;;;;;;;20.92;4.45;;;;;;;7.53;100.00;99827.91;5020318;28;20048;-71
2023/04/13 07:53:59;;;;;;;16.73;4.63;;;;;;;7.59;100.00;99826.56;5029137;28;20033;-71
2023/04/13 07:56:25;;;;;;;13.20;3.97;;;;;;;7.65;100.00;99834.97;5014256;28;20112;-71
2023/04/13 07:58:50;;;;;;;19.88;4.47;;;;;;;7.70;100.00;99838.16;5020723;28;20025;-71
2023/04/13 08:01:15;;;;;;;16.67;4.18;;;;;;;7.75;100.00;99835.09;5021066;28;20057;-71
2023/04/13 08:03:41;;;;;;;18.88;4.82;;;;;;;7.82;100.00;99839.00;5018645;28;20444;-72
2023/04/13 08:06:07;;;;;;;18.48;4.72;;;;;;;7.89;100.00;99844.72;5025618;28;20018;-72
2023/04/13 08:08:32;;;;;;;19.95;4.85;;;;;;;7.96;100.00;99851.28;5019181;28;20117;-71
2023/04/13 08:10:58;;;;;;;23.15;4.40;;;;;;;8.04;99.86;99856.91;5030897;28;20029;-71
2023/04/13 08:13:25;;;;;;;16.85;4.53;;;;;;;8.12;97.28;99860.81;5020503;28;20481;-71
2023/04/13 08:15:50;;;;;;;17.20;4.40;;;;;;;8.19;98.52;99859.34;5021069;28;20025;-71
2023/04/13 08:18:15;;;;;;;16.08;4.55;;;;;;;8.25;99.21;99858.84;5025113;28;20037;-72
2023/04/13 08:20:41;;;;;;;17.73;4.40;;;;;;;8.32;97.02;99867.25;5023720;28;20414;-71
2023/04/13 08:23:06;;;;;;;21.73;5.18;;;;;;;8.38;96.87;99875.63;5018931;28;20056;-72
2023/04/13 08:25:31;;;;;;;24.70;5.43;;;;;;;8.41;95.95;99874.53;5025663;28;20029;-72
2023/04/13 08:27:56;;;;;;;18.58;4.82;;;;;;;8.48;96.09;99877.63;5016113;28;20481;-71
2023/04/13 08:30:22;;;;;;;18.20;5.15;;;;;;;8.49;94.70;99885.53;5015806;28;20017;-71
2023/04/13 08:32:47;;;;;;;19.48;5.03;;;;;;;8.55;94.48;99885.03;5019624;28;20034;-72
2023/04/13 08:35:13;;;;;;;22.10;5.40;;;;;;;8.61;95.19;99896.22;5012614;28;20041;-72
2023/04/13 08:37:39;;;;;;;23.60;6.32;;;;;;;8.62;94.09;99901.44;5011156;28;20046;-72
2023/04/13 08:40:10;;;;;;;14.30;4.25;;;;;;;8.66;92.25;99902.91;5021264;28;20121;-72
2023/04/13 08:42:37;;;;;;;21.02;4.57;;;;;;;8.70;89.62;99906.22;5013390;28;20334;-72
2023/04/13 08:45:03;;;;;;;18.38;4.63;;;;;;;8.74;91.14;99921.91;5006151;28;20484;-72
2023/04/13 08:47:29;;;;;;;27.95;5.22;;;;;;;8.79;90.82;99918.00;5010004;28;20026;-72
2023/04/13 08:49:59;;;;;;;14.50;3.78;;;;;;;8.82;87.71;99933.84;5027904;28;20431;-72
2023/04/13 08:52:26;;;;;;;15.32;3.85;;;;;;;8.81;85.00;99919.56;5022910;28;20106;-72
2023/04/13 08:54:57;;;;;;;13.10;3.83;;;;;;;8.89;89.26;99922.50;5014319;28;20121;-72
2023/04/13 08:57:23;;;;;;;13.23;3.47;;;;;;;8.94;85.60;99934.66;5032023;28;20033;-72
2023/04/13 08:59:51;;;;;;;18.13;4.53;;;;;;;8.97;85.27;99947.81;5017289;28;20033;-72
2023/04/13 09:02:27;;;;;;;17.70;3.97;;;;;;;9.04;90.16;99947.19;5010241;28;20034;-71
2023/04/13 09:04:56;;;;;;;20.35;4.00;;;;;;;9.13;88.07;99944.75;5011962;28;20061;-72
2023/04/13 09:07:26;;;;;;;16.83;3.55;;;;;;;9.19;86.19;99947.75;5018978;28;20045;-72
2023/04/13 09:09:59;;;;;;;18.50;4.75;;;;;;;9.30;84.45;99960.28;5019787;28;20038;-72
2023/04/13 09:12:25;;;;;;;17.05;4.07;;;;;;;9.42;85.43;99959.28;5020117;28;20120;-72
2023/04/13 09:14:51;;;;;;;20.75;4.60;;;;;;;9.48;82.07;99954.38;5016543;28;20398;-72
2023/04/13 09:17:24;;;;;;;18.80;4.05;;;;;;;9.55;86.33;99958.28;5020493;28;20045;-72
2023/04/13 09:19:50;;;;;;;19.75;4.63;;;;;;;9.58;81.86;99966.91;5017830;28;20087;-72
2023/04/13 09:22:15;;;;;;;15.77;4.10;;;;;;;9.56;81.51;99971.56;5021510;28;20493;-71
2023/04/13 09:24:41;;;;;;;16.02;4.10;;;;;;;9.51;83.58;99975.59;5013140;28;20094;-72
2023/04/13 09:27:19;;;;;;;19.63;4.57;;;;;;;9.47;81.39;99988.38;5020993;28;20025;-72
2023/04/13 09:29:55;;;;;;;22.65;4.13;;;;;;;9.47;81.64;99991.06;5014118;28;20041;-72
2023/04/13 09:32:22;;;;;;;18.70;3.65;;;;;;;9.45;78.85;99985.84;5023098;28;20021;-72
2023/04/13 09:35:05;;;;;;;11.77;3.30;;;;;;;9.50;81.42;99993.50;5021155;28;20029;-72
2023/04/13 09:37:31;;;;;;;15.38;3.90;;;;;;;9.43;80.11;100000.38;5014724;28;20038;-72
2023/04/13 09:40:17;;;;;;;17.20;3.42;;;;;;;9.34;79.24;100003.78;5023807;28;20037;-72
2023/04/13 09:43:03;;;;;;;18.58;3.97;;;;;;;9.32;82.00;100013.81;5024468;28;20022;-72
2023/04/13 09:45:39;;;;;;;16.50;3.90;;;;;;;9.31;80.68;100017.44;5012768;28;20022;-72
2023/04/13 09:48:16;;;;;;;18.67;4.38;;;;;;;9.34;82.14;100017.19;5011745;28;20030;-71
2023/04/13 09:50:41;;;;;;;15.23;3.90;;;;;;;9.37;79.90;100031.22;5015396;28;20049;-72
2023/04/13 09:53:10;;;;;;;16.52;4.05;;;;;;;9.37;78.01;100033.91;5017909;28;20026;-72
2023/04/13 09:55:37;;;;;;;16.20;3.90;;;;;;;9.33;78.90;100035.13;5015557;28;20032;-72
2023/04/13 09:58:10;;;;;;;16.73;3.78;;;;;;;9.29;82.73;100047.06;5019565;28;20469;-72
2023/04/13 10:00:37;;;;;;;17.15;3.90;;;;;;;9.24;82.06;100052.81;5016935;28;20049;-72
2023/04/13 10:03:07;;;;;;;20.02;4.90;;;;;;;9.19;80.05;100059.50;5018623;28;20034;-72
2023/04/13 10:05:33;;;;;;;20.42;4.82;;;;;;;9.18;82.09;100065.84;5017491;28;20049;-72
2023/04/13 10:08:00;;;;;;;20.00;5.20;;;;;;;9.23;83.65;100067.19;5019987;28;20038;-72
2023/04/13 10:10:25;;;;;;;21.02;5.13;;;;;;;9.29;81.12;100073.88;5009274;28;20184;-72
2023/04/13 10:12:56;;;;;;;18.38;5.35;;;;;;;9.31;81.26;100074.59;5021750;28;20030;-72
2023/04/13 10:15:50;;;;;;;19.73;4.78;;;;;;;9.36;82.33;100079.63;5011910;28;20060;-72
2023/04/13 10:18:28;;;;;;;23.30;5.25;;;;;;;9.42;82.07;100089.84;5026942;28;20034;-72
2023/04/13 10:20:57;;;;;;;23.60;5.38;;;;;;;9.44;81.28;100080.72;5022893;28;20077;-72
2023/04/13 10:23:23;;;;;;;20.35;5.20;;;;;;;9.45;80.79;100082.38;5034008;28;20100;-72
2023/04/13 10:25:57;;;;;;;20.20;5.63;;;;;;;9.43;80.18;100084.34;5018604;28;20038;-72
2023/04/13 10:28:23;;;;;;;22.20;5.78;;;;;;;9.40;78.74;100094.47;5021189;28;20515;-72
2023/04/13 10:30:53;;;;;;;18.85;5.55;;;;;;;9.39;78.60;100090.09;5027687;28;20089;-72
2023/04/13 10:33:19;;;;;;;22.88;5.63;;;;;;;9.43;79.35;100094.25;5027037;28;20030;-72
2023/04/13 10:36:01;;;;;;;22.10;6.40;;;;;;;9.50;79.08;100099.94;5021318;28;20506;-72
2023/04/13 10:38:26;;;;;;;21.38;6.22;;;;;;;9.57;77.26;100096.63;5019237;28;20053;-72
2023/04/13 10:40:53;;;;;;;22.40;6.22;;;;;;;9.72;78.72;100104.41;5022302;28;20025;-72
2023/04/13 10:43:29;;;;;;;21.25;5.80;;;;;;;9.80;77.01;100105.50;5024490;28;20095;-72
2023/04/13 10:46:12;;;;;;;19.90;5.25;;;;;;;9.92;76.13;100110.84;5019146;28;20053;-72
2023/04/13 10:48:40;;;;;;;16.88;4.50;;;;;;;9.95;74.99;100111.41;5025724;28;20490;-72
2023/04/13 10:51:06;;;;;;;18.75;5.20;;;;;;;9.95;76.34;100116.78;5025458;28;20029;-72
2023/04/13 10:53:33;;;;;;;18.55;4.40;;;;;;;9.93;76.28;100120.59;5024896;28;20037;-72
2023/04/13 10:55:59;;;;;;;15.25;4.65;;;;;;;9.86;74.93;100120.25;5016393;28;20152;-72
2023/04/13 10:58:27;;;;;;;16.67;4.70;;;;;;;9.83;73.28;100133.06;5025336;28;20115;-72
2023/04/13 11:00:56;;;;;;;15.07;4.18;;;;;;;9.82;71.27;100142.09;5027238;28;20025;-72
2023/04/13 11:03:25;;;;;;;14.73;3.47;;;;;;;9.87;73.49;100150.59;5026122;28;20086;-72
2023/04/13 11:05:58;;;;;;;22.23;3.85;;;;;;;9.95;75.13;100143.63;5028110;28;20280;-72
2023/04/13 11:08:24;;;;;;;23.33;3.92;;;;;;;9.97;72.95;100148.88;5026781;28;20060;-71
2023/04/13 11:10:51;;;;;;;16.73;3.40;;;;;;;9.97;73.97;100155.13;5019569;28;20041;-72
2023/04/13 11:13:16;;;;;;;17.30;3.58;;;;;;;10.00;73.65;100150.47;5027635;28;20084;-72
2023/04/13 11:15:42;;;;;;;14.70;4.10;;;;;;;9.99;74.27;100157.66;5029355;28;20021;-72
2023/04/13 11:18:07;;;;;;;17.75;3.45;;;;;;;10.03;75.73;100164.50;5020269;28;20037;-72
2023/04/13 11:20:33;;;;;;;12.57;3.53;;;;;;;10.04;75.37;100168.88;5025556;28;20033;-72
2023/04/13 11:23:01;;;;;;;13.73;3.70;;;;;;;10.04;73.04;100163.50;5024885;28;20029;-72
2023/04/13 11:25:27;;;;;;;21.48;4.63;;;;;;;10.07;74.68;100167.78;5019484;28;20386;-72
2023/04/13 11:28:00;;;;;;;16.15;3.13;;;;;;;10.13;73.20;100160.09;5026394;28;20497;-71
2023/04/13 11:30:26;;;;;;;10.55;3.03;;;;;;;10.22;72.67;100161.16;5023910;28;20090;-72